createdAt,value
2018-07-11T00:05:14.445Z,6.86
2018-07-11T00:11:09.431Z,6.85
2018-07-11T00:17:04.437Z,7.01
2018-07-11T00:22:59.436Z,7.26
2018-07-11T00:28:54.438Z,6.74
2018-07-11T00:34:49.452Z,7
2018-07-11T00:40:44.435Z,6.89
2018-07-11T00:46:39.445Z,7.22
2018-07-11T00:52:34.452Z,7.08
2018-07-11T00:58:29.566Z,8.03
2018-07-11T01:04:24.475Z,7.56
2018-07-11T01:10:19.472Z,8.74
2018-07-11T01:16:14.454Z,8.03
2018-07-11T01:22:09.519Z,8.23
2018-07-11T01:28:04.474Z,8.09
2018-07-11T01:33:59.487Z,7.28
2018-07-11T01:39:54.466Z,7.74
2018-07-11T01:45:49.499Z,8.36
2018-07-11T01:51:44.550Z,8.28
2018-07-11T01:57:39.474Z,8.01
2018-07-11T02:03:34.487Z,8.12
2018-07-11T02:09:29.509Z,8.1
2018-07-11T02:15:24.526Z,8.05
2018-07-11T02:21:19.524Z,7.17
2018-07-11T02:27:14.507Z,8.27
2018-07-11T02:33:09.501Z,7.34
2018-07-11T02:39:04.562Z,7.71
2018-07-11T02:44:59.551Z,8.14
2018-07-11T02:50:54.512Z,7.39
2018-07-11T02:56:49.548Z,7.07
2018-07-11T03:02:44.530Z,7.56
2018-07-11T03:08:39.561Z,7.42
2018-07-11T03:14:34.555Z,7.74
2018-07-11T03:20:29.552Z,7.4
2018-07-11T03:26:24.576Z,7.24
2018-07-11T03:32:19.547Z,7.87
2018-07-11T03:38:14.627Z,7.27
2018-07-11T03:44:09.602Z,7.17
2018-07-11T03:50:04.610Z,6.98
2018-07-11T03:55:59.552Z,7.71
2018-07-11T04:01:54.563Z,7.84
2018-07-11T04:07:49.606Z,7.18
2018-07-11T04:13:44.644Z,7.77
2018-07-11T04:19:39.594Z,7.7
2018-07-11T04:25:34.585Z,7.58
2018-07-11T04:31:29.604Z,8.1
2018-07-11T04:37:24.588Z,7.49
2018-07-11T04:43:19.602Z,7.09
2018-07-11T04:49:14.610Z,7.22
2018-07-11T04:55:09.616Z,7.1
2018-07-11T05:01:04.621Z,7.93
2018-07-11T05:06:59.636Z,6.37
2018-07-11T05:12:54.635Z,5.85
2018-07-11T05:18:49.667Z,5.94
2018-07-11T05:24:44.636Z,5.79
2018-07-11T05:30:39.656Z,6.16
2018-07-11T05:36:34.673Z,6.05
2018-07-11T05:42:29.704Z,5.75
2018-07-11T05:48:24.673Z,5.8
2018-07-11T05:54:19.641Z,5.24
2018-07-11T06:00:14.709Z,5.66
2018-07-11T06:06:09.683Z,5.09
2018-07-11T06:12:04.719Z,5.19
2018-07-11T06:17:59.692Z,5.17
2018-07-11T06:23:54.686Z,4.83
2018-07-11T06:29:49.700Z,4.97
2018-07-11T06:35:44.722Z,4.93
2018-07-11T06:41:39.735Z,4.67
2018-07-11T06:47:34.685Z,5.22
2018-07-11T06:53:29.690Z,4.77
2018-07-11T06:59:24.725Z,5.01
2018-07-11T07:05:19.733Z,5.11
2018-07-11T07:11:14.749Z,4.81
2018-07-11T07:17:09.711Z,4.5
2018-07-11T07:23:04.711Z,4.63
2018-07-11T07:28:59.803Z,5.03
2018-07-11T07:34:54.787Z,4.87
2018-07-11T07:40:49.727Z,4.75
2018-07-11T07:46:44.749Z,4.25
2018-07-11T07:52:39.744Z,3.86
2018-07-11T07:58:34.794Z,4.23
2018-07-11T08:04:29.752Z,3.79
2018-07-11T08:10:24.761Z,3.83
2018-07-11T08:16:19.778Z,3.85
2018-07-11T08:22:14.769Z,3.39
2018-07-11T08:28:09.785Z,3.54
2018-07-11T08:34:04.793Z,3.77
2018-07-11T08:39:59.800Z,3.74
2018-07-11T08:45:54.816Z,3.72
2018-07-11T08:51:49.834Z,3.59
2018-07-11T08:57:44.780Z,3.51
2018-07-11T09:03:39.848Z,3.77
2018-07-11T09:09:34.801Z,3.72
2018-07-11T09:15:29.792Z,3.69
2018-07-11T09:21:24.889Z,3.6
2018-07-11T09:27:19.830Z,4.03
2018-07-11T09:33:14.866Z,4.06
2018-07-11T09:39:09.820Z,3.99
2018-07-11T09:45:04.838Z,3.69
2018-07-11T09:50:59.861Z,3.78
2018-07-11T09:56:54.863Z,3.81
2018-07-11T10:02:49.864Z,3.52
2018-07-11T10:08:44.865Z,3.37
2018-07-11T10:14:39.887Z,3.25
2018-07-11T10:20:34.859Z,3.08
2018-07-11T10:26:29.886Z,3.3
2018-07-11T10:32:24.966Z,3
2018-07-11T10:38:19.914Z,2.57
2018-07-11T10:44:14.951Z,3.46
2018-07-11T10:50:09.889Z,3.75
2018-07-11T10:56:04.907Z,3.03
2018-07-11T11:01:59.885Z,3.64
2018-07-11T11:07:54.950Z,3.46
2018-07-11T11:13:49.932Z,3.15
2018-07-11T11:19:44.943Z,3.48
2018-07-11T11:25:39.970Z,3.12
2018-07-11T11:31:34.926Z,3.2
2018-07-11T11:37:29.914Z,3.17
2018-07-11T11:43:24.957Z,2.88
2018-07-11T11:49:19.976Z,3.12
2018-07-11T11:55:14.938Z,3.58
2018-07-11T12:01:09.965Z,3.27
2018-07-11T12:07:05.032Z,2.57
2018-07-11T12:12:59.983Z,2.39
2018-07-11T12:18:54.973Z,2.53
2018-07-11T12:24:50.036Z,2.59
2018-07-11T12:30:45.052Z,2.94
2018-07-11T12:36:39.967Z,3.3
2018-07-11T12:42:35.000Z,3.71
2018-07-11T12:48:29.986Z,2.24
2018-07-11T12:54:24.988Z,2.17
2018-07-11T13:00:19.984Z,2.37
2018-07-11T13:06:15.000Z,2.19
2018-07-11T13:12:10.065Z,2.18
2018-07-11T13:18:04.989Z,2.06
2018-07-11T13:24:00.075Z,1.87
2018-07-11T13:29:55.007Z,2.05
2018-07-11T13:35:50.019Z,2.21
2018-07-11T13:41:45.035Z,2.09
2018-07-11T13:47:40.025Z,2.36
2018-07-11T13:53:35.044Z,2.4
2018-07-11T13:59:30.033Z,2.67
2018-07-11T14:05:25.051Z,2.66
2018-07-11T14:11:20.091Z,3.1
2018-07-11T14:17:15.105Z,2.52
2018-07-11T14:23:10.083Z,2.79
2018-07-11T14:29:05.081Z,2.68
2018-07-11T14:35:00.136Z,2.62
2018-07-11T14:40:55.065Z,2.82
2018-07-11T14:46:50.082Z,2.87
2018-07-11T14:52:45.104Z,3.23
2018-07-11T14:58:40.123Z,3.03
2018-07-11T15:04:35.085Z,3.41
2018-07-11T15:10:30.138Z,3.07
2018-07-11T15:16:25.109Z,3.4
2018-07-11T15:22:20.101Z,3.17
2018-07-11T15:28:15.127Z,3.58
2018-07-11T15:34:10.128Z,2.95
2018-07-11T15:40:05.111Z,3.19
2018-07-11T15:46:00.116Z,3.19
2018-07-11T15:51:55.135Z,3.04
2018-07-11T15:57:50.132Z,3.26
2018-07-11T16:03:45.146Z,3.37
2018-07-11T16:09:40.178Z,3.63
2018-07-11T16:15:35.219Z,2.91
2018-07-11T16:21:30.202Z,3.36
2018-07-11T16:27:25.172Z,2.97
2018-07-11T16:33:20.242Z,3.05
2018-07-11T16:39:15.167Z,3.33
2018-07-11T16:45:10.615Z,3.56
2018-07-11T16:51:05.226Z,3.06
2018-07-11T16:57:00.185Z,3.47
2018-07-11T17:02:55.201Z,3.47
2018-07-11T17:08:50.250Z,3.12
2018-07-11T17:14:45.222Z,3.11
2018-07-11T17:20:40.193Z,2.67
2018-07-11T17:26:35.209Z,2.56
2018-07-11T17:32:30.225Z,3.49
2018-07-11T17:38:25.218Z,2.86
2018-07-11T17:44:20.218Z,3.1
2018-07-11T17:50:15.332Z,3.09
2018-07-11T17:56:10.246Z,3.27
2018-07-11T18:02:05.235Z,2.86
2018-07-11T18:08:00.241Z,3.34
2018-07-11T18:13:55.237Z,3.55
2018-07-11T18:19:50.242Z,3.24
2018-07-11T18:25:45.249Z,3.7
2018-07-11T18:31:40.277Z,3.14
2018-07-11T18:37:35.290Z,3.62
2018-07-11T18:43:30.308Z,3.17
2018-07-11T18:49:25.279Z,3.33
2018-07-11T18:55:20.253Z,3.15
2018-07-11T19:01:15.313Z,3.5
2018-07-11T19:07:10.295Z,3.21
2018-07-11T19:13:05.287Z,2.85
2018-07-11T19:19:00.300Z,2.95
2018-07-11T19:24:55.361Z,3.07
2018-07-11T19:30:50.356Z,3.44
2018-07-11T19:36:45.368Z,2.58
2018-07-11T19:42:40.290Z,2.73
2018-07-11T19:48:35.307Z,3.17
2018-07-11T19:54:30.305Z,3.26
2018-07-11T20:00:25.363Z,3.14
2018-07-11T20:06:20.320Z,3.14
2018-07-11T20:12:15.353Z,3.04
2018-07-11T20:18:10.314Z,3.21
2018-07-11T20:24:05.445Z,3.45
2018-07-11T20:30:00.341Z,3.6
2018-07-11T20:35:55.350Z,3.93
2018-07-11T20:41:50.354Z,3.37
2018-07-11T20:47:45.400Z,3.75
2018-07-11T20:53:40.365Z,3.36
2018-07-11T20:59:35.417Z,3.97
2018-07-11T21:05:30.381Z,3.76
2018-07-11T21:11:25.358Z,3.98
2018-07-11T21:17:20.385Z,4.07
2018-07-11T21:23:15.372Z,4.11
2018-07-11T21:29:10.417Z,4.38
2018-07-11T21:35:05.384Z,4.69
2018-07-11T21:41:00.375Z,4.92
2018-07-11T21:46:55.438Z,4.61
2018-07-11T21:52:50.399Z,4.42
2018-07-11T21:58:45.389Z,4.23
2018-07-11T22:04:40.413Z,4.73
2018-07-11T22:10:35.412Z,5.18
2018-07-11T22:16:30.405Z,4.69
2018-07-11T22:22:25.403Z,4.52
2018-07-11T22:28:20.424Z,5.44
2018-07-11T22:34:15.441Z,4.7
2018-07-11T22:40:10.420Z,5.46
2018-07-11T22:46:05.443Z,4.67
2018-07-11T22:52:00.435Z,4.26
2018-07-11T22:57:55.471Z,5.81
2018-07-11T23:03:50.505Z,4.97
2018-07-11T23:09:45.448Z,4.93
2018-07-11T23:15:40.501Z,6.27
2018-07-11T23:21:35.469Z,5.08
2018-07-11T23:27:30.547Z,5.15
2018-07-11T23:33:25.489Z,5.15
2018-07-11T23:39:20.471Z,5.16
2018-07-11T23:45:15.653Z,4.9
2018-07-11T23:51:10.496Z,5.35
2018-07-11T23:57:05.468Z,5
